createdAt,value
2023-04-28T00:01:50.675Z,11.12
2023-04-28T00:04:17.589Z,11.08
2023-04-28T00:06:43.485Z,11.06
2023-04-28T00:09:09.894Z,11.06
2023-04-28T00:11:36.311Z,11.01
2023-04-28T00:14:02.770Z,10.96
2023-04-28T00:16:29.247Z,10.92
2023-04-28T00:18:55.557Z,10.91
2023-04-28T00:21:22.059Z,10.92
2023-04-28T00:23:48.439Z,10.89
2023-04-28T00:26:14.950Z,10.87
2023-04-28T00:28:41.312Z,10.84
2023-04-28T00:31:09.127Z,10.80
2023-04-28T00:33:34.243Z,10.78
2023-04-28T00:36:00.706Z,10.76
2023-04-28T00:38:27.067Z,10.73
2023-04-28T00:40:53.504Z,10.70
2023-04-28T00:43:19.951Z,10.66
2023-04-28T00:45:46.507Z,10.64
2023-04-28T00:48:12.825Z,10.63
2023-04-28T00:50:39.503Z,10.59
2023-04-28T00:53:05.917Z,10.55
2023-04-28T00:55:32.332Z,10.50
2023-04-28T00:57:58.795Z,10.48
2023-04-28T01:00:25.185Z,10.47
2023-04-28T01:02:51.733Z,10.45
2023-04-28T01:05:18.080Z,10.43
2023-04-28T01:07:44.457Z,10.43
2023-04-28T01:10:10.917Z,10.42
2023-04-28T01:12:37.280Z,10.36
2023-04-28T01:15:03.687Z,10.31
2023-04-28T01:17:30.188Z,10.28
2023-04-28T01:19:56.552Z,10.26
2023-04-28T01:22:23.028Z,10.24
2023-04-28T01:24:49.435Z,10.23
2023-04-28T01:27:15.934Z,10.23
2023-04-28T01:29:42.299Z,10.23
2023-04-28T01:32:08.690Z,10.21
2023-04-28T01:34:35.148Z,10.17
2023-04-28T01:37:01.628Z,10.15
2023-04-28T01:39:28.085Z,10.13
2023-04-28T01:41:54.610Z,10.11
2023-04-28T01:44:21.111Z,10.08
2023-04-28T01:46:47.511Z,10.06
2023-04-28T01:49:13.920Z,10.01
2023-04-28T01:51:40.435Z,9.99
2023-04-28T01:54:06.798Z,9.97
2023-04-28T01:56:33.268Z,9.93
2023-04-28T01:58:59.733Z,9.92
2023-04-28T02:01:26.136Z,9.90
2023-04-28T02:03:52.831Z,9.89
2023-04-28T02:06:18.991Z,9.88
2023-04-28T02:08:45.388Z,9.84
2023-04-28T02:11:11.834Z,9.83
2023-04-28T02:13:38.312Z,9.79
2023-04-28T02:16:04.744Z,9.76
2023-04-28T02:18:31.262Z,9.74
2023-04-28T02:20:57.636Z,9.76
2023-04-28T02:23:24.162Z,9.76
2023-04-28T02:25:50.548Z,9.71
2023-04-28T02:28:16.959Z,9.67
2023-04-28T02:30:43.338Z,9.67
2023-04-28T02:33:11.487Z,9.64
2023-04-28T02:35:36.287Z,9.63
2023-04-28T02:38:02.708Z,9.62
2023-04-28T02:40:29.125Z,9.59
2023-04-28T02:42:55.584Z,9.57
2023-04-28T02:45:22.069Z,9.55
2023-04-28T02:47:48.451Z,9.53
2023-04-28T02:50:15.013Z,9.51
2023-04-28T02:52:41.473Z,9.50
2023-04-28T02:55:07.917Z,9.46
2023-04-28T02:57:34.450Z,9.44
2023-04-28T03:00:00.796Z,9.40
2023-04-28T03:02:27.344Z,9.38
2023-04-28T03:04:53.811Z,9.36
2023-04-28T03:07:20.232Z,9.33
2023-04-28T03:09:46.557Z,9.32
2023-04-28T03:12:13.021Z,9.31
2023-04-28T03:14:39.408Z,9.29
2023-04-28T03:17:05.808Z,9.28
2023-04-28T03:19:32.184Z,9.23
2023-04-28T03:21:58.614Z,9.21
2023-04-28T03:24:24.986Z,9.21
2023-04-28T03:26:51.536Z,9.20
2023-04-28T03:29:18.207Z,9.18
2023-04-28T03:31:44.697Z,9.17
2023-04-28T03:34:11.019Z,9.12
2023-04-28T03:36:37.412Z,9.13
2023-04-28T03:39:03.833Z,9.13
2023-04-28T03:41:30.202Z,9.14
2023-04-28T03:43:56.699Z,9.11
2023-04-28T03:46:23.196Z,9.09
2023-04-28T03:48:49.561Z,9.08
2023-04-28T03:51:15.962Z,9.07
2023-04-28T03:53:42.474Z,9.08
2023-04-28T03:56:08.906Z,9.07
2023-04-28T03:58:35.318Z,9.05
2023-04-28T04:01:01.782Z,9.04
2023-04-28T04:03:28.358Z,9.03
2023-04-28T04:05:54.657Z,9.03
2023-04-28T04:08:20.992Z,9.05
2023-04-28T04:10:47.460Z,9.05
2023-04-28T04:13:13.829Z,9.05
2023-04-28T04:15:40.283Z,9.05
2023-04-28T04:18:06.760Z,9.07
2023-04-28T04:20:33.220Z,9.12
2023-04-28T04:22:59.632Z,9.12
2023-04-28T04:25:26.221Z,9.12
2023-04-28T04:27:52.565Z,9.16
2023-04-28T04:30:19.106Z,9.18
2023-04-28T04:32:45.584Z,9.21
2023-04-28T04:35:12.131Z,9.24
2023-04-28T04:37:38.558Z,9.24
2023-04-28T04:40:04.995Z,9.23
2023-04-28T04:42:31.468Z,9.24
2023-04-28T04:44:57.878Z,9.29
2023-04-28T04:47:24.337Z,9.35
2023-04-28T04:49:50.785Z,9.42
2023-04-28T04:52:17.185Z,9.51
2023-04-28T04:54:43.566Z,9.59
2023-04-28T04:57:10.004Z,9.68
2023-04-28T04:59:36.450Z,9.78
2023-04-28T05:02:02.988Z,9.85
2023-04-28T05:04:29.599Z,9.96
2023-04-28T05:06:55.903Z,10.25
2023-04-28T05:09:22.341Z,11.01
2023-04-28T05:11:48.984Z,11.63
2023-04-28T05:14:15.564Z,12.03
2023-04-28T05:16:42.935Z,12.21
2023-04-28T05:19:09.346Z,12.13
2023-04-28T05:21:35.699Z,11.93
2023-04-28T05:24:02.145Z,11.82
2023-04-28T05:26:28.607Z,11.79
2023-04-28T05:28:55.035Z,11.79
2023-04-28T05:31:21.480Z,11.81
2023-04-28T05:33:47.863Z,11.88
2023-04-28T05:36:14.249Z,11.93
2023-04-28T05:38:40.699Z,11.99
2023-04-28T05:41:07.166Z,12.06
2023-04-28T05:43:33.528Z,12.18
2023-04-28T05:46:00.213Z,12.31
2023-04-28T05:48:26.565Z,12.40
2023-04-28T05:50:53.025Z,12.53
2023-04-28T05:53:19.365Z,12.65
2023-04-28T05:55:45.996Z,12.75
2023-04-28T05:58:12.424Z,12.87
2023-04-28T06:00:38.934Z,12.98
2023-04-28T06:03:05.405Z,13.09
2023-04-28T06:05:32.118Z,13.18
2023-04-28T06:07:58.128Z,13.35
2023-04-28T06:10:24.596Z,13.49
2023-04-28T06:12:50.971Z,13.64
2023-04-28T06:15:17.434Z,13.73
2023-04-28T06:17:43.920Z,13.88
2023-04-28T06:20:10.340Z,13.98
2023-04-28T06:22:36.781Z,14.15
2023-04-28T06:25:03.166Z,14.30
2023-04-28T06:27:29.544Z,14.41
2023-04-28T06:29:55.922Z,14.46
2023-04-28T06:32:22.365Z,14.57
2023-04-28T06:34:48.725Z,14.75
2023-04-28T06:37:17.292Z,14.87
2023-04-28T06:39:43.776Z,15.00
2023-04-28T06:42:10.562Z,15.14
2023-04-28T06:44:36.993Z,15.29
2023-04-28T06:47:03.381Z,15.39
2023-04-28T06:49:29.801Z,15.53
2023-04-28T06:51:56.259Z,15.72
2023-04-28T06:54:22.680Z,15.85
2023-04-28T06:56:49.034Z,15.98
2023-04-28T06:59:15.583Z,16.07
2023-04-28T07:01:42.169Z,16.14
2023-04-28T07:04:08.750Z,16.27
2023-04-28T07:06:35.185Z,16.40
2023-04-28T07:09:01.615Z,16.52
2023-04-28T07:11:28.003Z,16.64
2023-04-28T07:13:54.475Z,16.71
2023-04-28T07:16:20.859Z,16.89
2023-04-28T07:18:47.206Z,17.03
2023-04-28T07:21:13.716Z,17.19
2023-04-28T07:23:41.325Z,17.30
2023-04-28T07:26:07.749Z,17.43
2023-04-28T07:28:34.160Z,17.59
2023-04-28T07:31:00.595Z,17.75
2023-04-28T07:33:27.052Z,17.87
2023-04-28T07:35:53.491Z,17.97
2023-04-28T07:38:19.849Z,18.04
2023-04-28T07:40:46.426Z,18.14
2023-04-28T07:43:13.227Z,18.26
2023-04-28T07:45:39.617Z,18.34
2023-04-28T07:48:06.035Z,18.48
2023-04-28T07:50:32.361Z,18.62
2023-04-28T07:52:58.882Z,18.65
2023-04-28T07:55:25.300Z,18.80
2023-04-28T07:57:51.731Z,19.00
2023-04-28T08:00:19.151Z,19.06
2023-04-28T08:02:45.748Z,19.18
2023-04-28T08:05:12.190Z,19.29
2023-04-28T08:07:38.616Z,19.42
2023-04-28T08:10:04.994Z,19.55
2023-04-28T08:12:31.426Z,19.69
2023-04-28T08:14:57.828Z,19.80
2023-04-28T08:17:24.278Z,19.92
2023-04-28T08:19:50.673Z,20.01
2023-04-28T08:22:17.045Z,20.00
2023-04-28T08:24:43.479Z,19.95
2023-04-28T08:27:09.897Z,19.99
2023-04-28T08:29:37.354Z,20.02
2023-04-28T08:32:03.834Z,20.05
2023-04-28T08:34:30.180Z,20.10
2023-04-28T08:36:56.629Z,20.14
2023-04-28T08:39:23.079Z,20.25
2023-04-28T08:41:49.450Z,20.42
2023-04-28T08:44:18.232Z,20.52
2023-04-28T08:46:44.466Z,20.63
2023-04-28T08:49:10.834Z,20.78
2023-04-28T08:51:38.141Z,20.83
2023-04-28T08:54:29.551Z,20.91
2023-04-28T08:56:30.474Z,21.05
2023-04-28T08:58:56.964Z,21.17
2023-04-28T09:01:23.387Z,21.31
2023-04-28T09:03:50.070Z,21.39
2023-04-28T09:06:16.359Z,21.45
2023-04-28T09:08:42.769Z,21.53
2023-04-28T09:11:09.214Z,21.58
2023-04-28T09:13:35.590Z,21.58
2023-04-28T09:16:02.089Z,21.69
2023-04-28T09:18:28.481Z,21.74
2023-04-28T09:20:54.876Z,21.82
2023-04-28T09:23:21.262Z,21.93
2023-04-28T09:25:50.057Z,22.05
2023-04-28T09:28:16.447Z,22.18
2023-04-28T09:30:42.881Z,22.29
2023-04-28T09:33:11.412Z,22.37
2023-04-28T09:35:35.754Z,22.38
2023-04-28T09:38:02.169Z,22.40
2023-04-28T09:40:29.018Z,22.52
2023-04-28T09:42:55.487Z,22.57
2023-04-28T09:45:22.947Z,22.67
2023-04-28T09:47:49.799Z,22.76
2023-04-28T09:50:16.212Z,22.86
2023-04-28T09:52:42.959Z,22.84
2023-04-28T09:55:09.414Z,22.86
2023-04-28T09:57:35.798Z,22.92
2023-04-28T10:00:02.243Z,22.96
2023-04-28T10:04:55.269Z,23.09
2023-04-28T10:07:21.490Z,23.23
2023-04-28T10:09:47.882Z,23.35
2023-04-28T10:12:14.746Z,23.31
2023-04-28T10:14:41.327Z,23.41
2023-04-28T10:17:07.594Z,23.43
2023-04-28T10:19:34.002Z,23.40
2023-04-28T10:22:00.421Z,23.48
2023-04-28T10:24:27.187Z,23.50
2023-04-28T10:26:53.537Z,23.49
2023-04-28T10:29:20.254Z,23.55
2023-04-28T10:31:46.725Z,23.64
2023-04-28T10:34:13.423Z,23.72
2023-04-28T10:36:39.922Z,23.75
2023-04-28T10:39:06.336Z,23.85
2023-04-28T10:41:32.754Z,23.99
2023-04-28T10:44:00.558Z,24.08
2023-04-28T10:46:27.230Z,24.22
2023-04-28T10:48:54.578Z,24.25
2023-04-28T10:51:21.061Z,24.20
2023-04-28T10:53:47.761Z,24.11
2023-04-28T10:56:13.956Z,24.07
2023-04-28T10:58:40.430Z,24.11
2023-04-28T11:01:06.849Z,24.23
2023-04-28T11:03:34.105Z,24.29
2023-04-28T11:06:00.427Z,24.27
2023-04-28T11:08:26.816Z,24.24
2023-04-28T11:10:53.234Z,24.30
2023-04-28T11:13:19.659Z,24.32
2023-04-28T11:15:46.034Z,24.30
2023-04-28T11:18:12.484Z,24.29
2023-04-28T11:20:38.883Z,24.21
2023-04-28T11:23:05.297Z,24.17
2023-04-28T11:25:31.699Z,24.05
2023-04-28T11:27:58.146Z,23.94
2023-04-28T11:30:24.517Z,24.00
2023-04-28T11:32:52.061Z,24.00
2023-04-28T11:35:18.419Z,23.90
2023-04-28T11:37:44.821Z,23.79
2023-04-28T11:40:11.731Z,23.68
2023-04-28T11:42:38.572Z,23.72
2023-04-28T11:45:04.984Z,23.76
2023-04-28T11:47:31.530Z,23.72
2023-04-28T11:49:57.941Z,23.49
2023-04-28T11:52:24.385Z,23.29
2023-04-28T11:54:50.803Z,23.23
2023-04-28T11:57:17.200Z,23.22
2023-04-28T11:59:44.041Z,23.22
2023-04-28T12:02:10.307Z,23.27
2023-04-28T12:04:36.682Z,23.29
2023-04-28T12:07:03.179Z,23.35
2023-04-28T12:09:29.570Z,23.44
2023-04-28T12:11:57.396Z,23.50
2023-04-28T12:14:23.827Z,23.62
2023-04-28T12:16:50.206Z,23.62
2023-04-28T12:19:16.609Z,23.56
2023-04-28T12:21:43.083Z,23.44
2023-04-28T12:24:09.468Z,23.35
2023-04-28T12:26:35.881Z,23.23
2023-04-28T12:29:02.718Z,23.18
2023-04-28T12:31:29.188Z,23.25
2023-04-28T12:33:55.631Z,23.32
2023-04-28T12:36:22.065Z,23.35
2023-04-28T12:38:48.491Z,23.20
2023-04-28T12:41:14.887Z,23.11
2023-04-28T12:43:41.249Z,23.12
2023-04-28T12:46:07.740Z,23.12
2023-04-28T12:48:34.075Z,23.15
2023-04-28T12:51:00.529Z,23.13
2023-04-28T12:53:27.038Z,23.10
2023-04-28T12:55:53.438Z,23.06
2023-04-28T12:58:19.812Z,23.07
2023-04-28T13:00:46.307Z,23.14
2023-04-28T13:03:12.799Z,23.11
2023-04-28T13:05:39.103Z,23.03
2023-04-28T13:08:05.530Z,23.02
2023-04-28T13:10:31.970Z,22.89
2023-04-28T13:12:58.394Z,22.75
2023-04-28T13:15:24.827Z,22.64
2023-04-28T13:17:51.310Z,22.56
2023-04-28T13:20:17.627Z,22.53
2023-04-28T13:22:44.073Z,22.47
2023-04-28T13:25:10.532Z,22.44
2023-04-28T13:27:37.768Z,22.48
2023-04-28T13:30:03.933Z,22.50
2023-04-28T13:32:30.242Z,22.53
2023-04-28T13:34:56.613Z,22.49
2023-04-28T13:37:23.074Z,22.38
2023-04-28T13:39:49.514Z,22.26
2023-04-28T13:42:15.915Z,22.19
2023-04-28T13:44:42.290Z,22.11
2023-04-28T13:47:08.665Z,21.99
2023-04-28T13:49:35.103Z,21.91
2023-04-28T13:52:02.992Z,21.89
2023-04-28T13:54:29.662Z,21.83
2023-04-28T13:56:56.144Z,21.75
2023-04-28T13:59:22.709Z,21.70
2023-04-28T14:01:49.310Z,21.62
2023-04-28T14:04:15.814Z,21.57
2023-04-28T14:06:42.132Z,21.48
2023-04-28T14:09:08.583Z,21.46
2023-04-28T14:11:34.970Z,21.39
2023-04-28T14:14:01.396Z,21.23
2023-04-28T14:16:28.062Z,21.10
2023-04-28T14:18:54.326Z,21.05
2023-04-28T14:21:20.734Z,21.00
2023-04-28T14:23:47.099Z,20.97
2023-04-28T14:26:13.474Z,20.94
2023-04-28T14:28:39.890Z,20.92
2023-04-28T14:31:06.466Z,20.88
2023-04-28T14:33:32.812Z,20.80
2023-04-28T14:35:59.253Z,20.74
2023-04-28T14:38:25.872Z,20.64
2023-04-28T14:40:52.232Z,20.61
2023-04-28T14:43:18.654Z,20.60
2023-04-28T14:45:45.055Z,20.53
2023-04-28T14:48:11.448Z,20.48
2023-04-28T14:50:37.913Z,20.40
2023-04-28T14:53:04.457Z,20.35
2023-04-28T14:55:30.851Z,20.30
2023-04-28T14:57:57.221Z,20.27
2023-04-28T15:00:23.757Z,20.22
2023-04-28T15:02:50.297Z,20.20
2023-04-28T15:05:16.550Z,20.17
2023-04-28T15:07:43.006Z,20.11
2023-04-28T15:10:09.420Z,20.03
2023-04-28T15:12:35.828Z,19.96
2023-04-28T15:15:02.357Z,19.94
2023-04-28T15:17:28.898Z,19.91
2023-04-28T15:19:55.296Z,19.88
2023-04-28T15:22:21.810Z,19.85
2023-04-28T15:24:48.462Z,19.79
2023-04-28T15:27:14.571Z,19.72
2023-04-28T15:29:41.002Z,19.69
2023-04-28T15:32:07.414Z,19.64
2023-04-28T15:34:34.090Z,19.62
2023-04-28T15:37:00.448Z,19.57
2023-04-28T15:39:26.879Z,19.52
2023-04-28T15:41:53.268Z,19.48
2023-04-28T15:44:19.662Z,19.46
2023-04-28T15:46:46.117Z,19.41
2023-04-28T15:49:12.550Z,19.35
2023-04-28T15:51:38.929Z,19.34
2023-04-28T15:54:05.317Z,19.29
2023-04-28T15:56:31.665Z,19.26
2023-04-28T15:58:58.106Z,19.21
2023-04-28T16:01:24.538Z,19.16
2023-04-28T16:03:51.059Z,19.10
2023-04-28T16:06:17.362Z,19.06
2023-04-28T16:08:43.769Z,19.02
2023-04-28T16:11:10.232Z,18.98
2023-04-28T16:13:36.743Z,18.93
2023-04-28T16:16:03.182Z,18.88
2023-04-28T16:18:29.594Z,18.84
2023-04-28T16:20:55.968Z,18.80
2023-04-28T16:23:22.419Z,18.74
2023-04-28T16:25:48.828Z,18.69
2023-04-28T16:28:15.275Z,18.65
2023-04-28T16:30:41.869Z,18.59
2023-04-28T16:33:08.251Z,18.54
2023-04-28T16:35:36.228Z,18.48
2023-04-28T16:38:02.637Z,18.42
2023-04-28T16:40:29.144Z,18.37
2023-04-28T16:42:55.535Z,18.31
2023-04-28T16:45:21.895Z,18.27
2023-04-28T16:47:48.375Z,18.22
2023-04-28T16:50:14.944Z,18.19
2023-04-28T16:52:41.116Z,18.15
2023-04-28T16:55:07.520Z,18.11
2023-04-28T16:57:33.917Z,18.07
2023-04-28T17:00:00.372Z,18.09
2023-04-28T17:02:27.169Z,18.14
2023-04-28T17:04:53.541Z,18.16
2023-04-28T17:07:19.963Z,18.06
2023-04-28T17:09:46.346Z,17.97
2023-04-28T17:12:12.800Z,17.89
2023-04-28T17:14:39.203Z,17.83
2023-04-28T17:17:05.616Z,17.76
2023-04-28T17:19:32.020Z,17.70
2023-04-28T17:21:58.461Z,17.65
2023-04-28T17:24:24.956Z,17.62
2023-04-28T17:26:52.447Z,17.59
2023-04-28T17:29:18.857Z,17.55
2023-04-28T17:31:45.353Z,17.52
2023-04-28T17:34:11.770Z,17.47
2023-04-28T17:36:38.185Z,17.47
2023-04-28T17:39:04.610Z,17.44
2023-04-28T17:41:31.013Z,17.37
2023-04-28T17:43:57.638Z,17.27
2023-04-28T17:46:24.130Z,17.22
2023-04-28T17:48:50.540Z,17.17
2023-04-28T17:51:17.036Z,17.15
2023-04-28T17:53:43.499Z,17.12
2023-04-28T17:56:09.820Z,17.08
2023-04-28T17:58:36.444Z,17.04
2023-04-28T18:01:02.838Z,17.00
2023-04-28T18:03:29.434Z,17.00
2023-04-28T18:05:55.776Z,16.94
2023-04-28T18:08:22.304Z,16.83
2023-04-28T18:10:48.680Z,16.74
2023-04-28T18:13:15.106Z,16.70
2023-04-28T18:15:41.591Z,16.64
2023-04-28T18:18:08.007Z,16.55
2023-04-28T18:20:34.499Z,16.48
2023-04-28T18:23:00.823Z,16.41
2023-04-28T18:25:27.282Z,16.38
2023-04-28T18:27:53.753Z,16.32
2023-04-28T18:30:20.115Z,16.24
2023-04-28T18:32:46.621Z,16.16
2023-04-28T18:35:13.051Z,16.11
2023-04-28T18:37:39.489Z,16.07
2023-04-28T18:40:05.920Z,16.02
2023-04-28T18:42:32.382Z,15.97
2023-04-28T18:44:58.906Z,15.89
2023-04-28T18:47:25.304Z,15.86
2023-04-28T18:49:51.813Z,15.83
2023-04-28T18:52:18.173Z,15.77
2023-04-28T18:54:45.291Z,15.69
2023-04-28T18:57:12.000Z,15.64
2023-04-28T18:59:38.613Z,15.66
2023-04-28T19:02:05.481Z,15.68
2023-04-28T19:04:32.322Z,15.65
2023-04-28T19:07:00.130Z,15.63
2023-04-28T19:09:27.267Z,15.61
2023-04-28T19:11:54.519Z,15.58
2023-04-28T19:14:21.391Z,15.49
2023-04-28T19:16:48.454Z,15.41
2023-04-28T19:19:17.255Z,15.37
2023-04-28T19:21:43.867Z,15.34
2023-04-28T19:24:13.086Z,15.31
2023-04-28T19:26:39.421Z,15.28
2023-04-28T19:29:05.923Z,15.23
2023-04-28T19:31:32.380Z,15.19
2023-04-28T19:33:58.767Z,15.18
2023-04-28T19:36:25.220Z,15.12
2023-04-28T19:38:51.687Z,15.11
2023-04-28T19:41:18.145Z,15.07
2023-04-28T19:43:44.491Z,15.01
2023-04-28T19:46:10.974Z,14.94
2023-04-28T19:48:37.376Z,14.89
2023-04-28T19:51:03.879Z,14.84
2023-04-28T19:53:30.310Z,14.81
2023-04-28T19:55:56.679Z,14.79
2023-04-28T19:58:23.126Z,14.78
2023-04-28T20:00:49.564Z,14.74
2023-04-28T20:03:16.075Z,14.71
2023-04-28T20:05:43.387Z,14.69
2023-04-28T20:08:09.863Z,14.66
2023-04-28T20:10:36.377Z,14.62
2023-04-28T20:13:02.879Z,14.59
2023-04-28T20:15:29.364Z,14.55
2023-04-28T20:17:55.822Z,14.51
2023-04-28T20:20:22.157Z,14.50
2023-04-28T20:22:48.777Z,14.50
2023-04-28T20:25:15.148Z,14.45
2023-04-28T20:27:41.562Z,14.42
2023-04-28T20:30:08.100Z,14.36
2023-04-28T20:32:34.585Z,14.31
2023-04-28T20:35:02.721Z,14.24
2023-04-28T20:37:30.605Z,14.22
2023-04-28T20:39:57.072Z,14.18
2023-04-28T20:42:23.432Z,14.16
2023-04-28T20:44:50.016Z,14.12
2023-04-28T20:47:16.411Z,14.09
2023-04-28T20:49:42.864Z,14.05
2023-04-28T20:52:11.328Z,14.00
2023-04-28T20:54:36.007Z,13.92
2023-04-28T20:57:02.250Z,13.95
2023-04-28T20:59:29.986Z,13.94
2023-04-28T21:01:55.264Z,13.92
2023-04-28T21:04:21.690Z,13.89
2023-04-28T21:06:48.200Z,13.88
2023-04-28T21:09:14.648Z,13.84
2023-04-28T21:11:41.117Z,13.79
2023-04-28T21:14:07.612Z,13.76
2023-04-28T21:16:34.055Z,13.72
2023-04-28T21:19:00.436Z,13.66
2023-04-28T21:21:26.873Z,13.63
2023-04-28T21:23:53.291Z,13.62
2023-04-28T21:26:19.659Z,13.62
2023-04-28T21:28:46.097Z,13.59
2023-04-28T21:31:12.593Z,13.57
2023-04-28T21:33:39.068Z,13.55
2023-04-28T21:36:05.527Z,13.53
2023-04-28T21:38:31.967Z,13.49
2023-04-28T21:40:58.375Z,13.45
2023-04-28T21:43:24.901Z,13.40
2023-04-28T21:45:51.358Z,13.31
2023-04-28T21:48:17.813Z,13.31
2023-04-28T21:50:44.201Z,13.33
2023-04-28T21:53:10.708Z,13.32
2023-04-28T21:55:37.389Z,13.26
2023-04-28T21:58:03.895Z,13.17
2023-04-28T22:00:30.285Z,13.12
2023-04-28T22:02:56.935Z,13.09
2023-04-28T22:05:23.373Z,13.06
2023-04-28T22:07:49.809Z,13.06
2023-04-28T22:10:16.421Z,12.97
2023-04-28T22:12:43.079Z,12.92
2023-04-28T22:15:09.600Z,12.93
2023-04-28T22:17:36.205Z,12.90
2023-04-28T22:20:02.653Z,12.89
2023-04-28T22:22:29.135Z,12.80
2023-04-28T22:24:55.740Z,12.78
2023-04-28T22:27:22.149Z,12.75
2023-04-28T22:29:48.777Z,12.70
2023-04-28T22:32:15.111Z,12.67
2023-04-28T22:34:44.237Z,12.61
2023-04-28T22:37:08.217Z,12.58
2023-04-28T22:39:34.848Z,12.52
2023-04-28T22:42:01.068Z,12.46
2023-04-28T22:44:27.678Z,12.47
2023-04-28T22:46:54.339Z,12.46
2023-04-28T22:49:20.689Z,12.48
2023-04-28T22:51:47.103Z,12.45
2023-04-28T22:54:13.657Z,12.38
2023-04-28T22:56:40.107Z,12.31
2023-04-28T22:59:06.592Z,12.26
2023-04-28T23:01:33.169Z,12.25
2023-04-28T23:03:59.598Z,12.19
2023-04-28T23:06:26.108Z,12.17
2023-04-28T23:08:52.556Z,12.12
2023-04-28T23:11:19.087Z,12.10
2023-04-28T23:13:45.628Z,12.07
2023-04-28T23:16:13.725Z,12.05
2023-04-28T23:18:38.640Z,12.03
2023-04-28T23:21:05.407Z,12.05
2023-04-28T23:23:31.812Z,12.03
2023-04-28T23:25:58.632Z,11.99
2023-04-28T23:28:25.131Z,11.95
2023-04-28T23:30:51.541Z,11.94
2023-04-28T23:33:18.026Z,11.95
2023-04-28T23:35:44.511Z,11.94
2023-04-28T23:38:11.039Z,11.93
2023-04-28T23:40:37.402Z,11.91
2023-04-28T23:43:03.943Z,11.88
2023-04-28T23:45:30.518Z,11.91
2023-04-28T23:47:56.942Z,11.90
2023-04-28T23:50:23.431Z,11.87
2023-04-28T23:52:49.976Z,11.82
2023-04-28T23:55:16.632Z,11.80
2023-04-28T23:57:43.097Z,11.77
